sensor_id;sensor_type;location;lat;lon;timestamp;P1;durP1;ratioP1;P2;durP2;ratioP2
1082;SDS011;530;51.448;7.238;2023-05-07T00:00:00;4.90;;;4.50;;
1082;SDS011;530;51.448;7.238;2023-05-07T00:02:26;5.10;;;4.60;;
1082;SDS011;530;51.448;7.238;2023-05-07T00:04:51;4.50;;;4.10;;
1082;SDS011;530;51.448;7.238;2023-05-07T00:07:17;4.40;;;4.00;;
1082;SDS011;530;51.448;7.238;2023-05-07T00:09:43;4.97;;;4.00;;
1082;SDS011;530;51.448;7.238;2023-05-07T00:12:09;6.30;;;4.80;;
1082;SDS011;530;51.448;7.238;2023-05-07T00:14:35;5.10;;;4.70;;
1082;SDS011;530;51.448;7.238;2023-05-07T00:17:01;5.10;;;4.60;;
1082;SDS011;530;51.448;7.238;2023-05-07T00:19:27;4.80;;;4.23;;
1082;SDS011;530;51.448;7.238;2023-05-07T00:21:52;4.43;;;4.03;;
1082;SDS011;530;51.448;7.238;2023-05-07T00:24:21;4.80;;;4.37;;
1082;SDS011;530;51.448;7.238;2023-05-07T00:26:47;5.73;;;5.13;;
1082;SDS011;530;51.448;7.238;2023-05-07T00:29:13;5.10;;;4.60;;
1082;SDS011;530;51.448;7.238;2023-05-07T00:31:38;5.17;;;4.73;;
1082;SDS011;530;51.448;7.238;2023-05-07T00:34:04;5.97;;;4.80;;
1082;SDS011;530;51.448;7.238;2023-05-07T00:36:30;5.20;;;4.67;;
1082;SDS011;530;51.448;7.238;2023-05-07T00:38:58;4.90;;;4.50;;
1082;SDS011;530;51.448;7.238;2023-05-07T00:41:25;6.07;;;5.57;;
1082;SDS011;530;51.448;7.238;2023-05-07T00:43:51;6.97;;;6.37;;
1082;SDS011;530;51.448;7.238;2023-05-07T00:46:18;7.80;;;7.00;;
1082;SDS011;530;51.448;7.238;2023-05-07T00:48:46;8.00;;;7.30;;
1082;SDS011;530;51.448;7.238;2023-05-07T00:51:12;7.50;;;6.90;;
1082;SDS011;530;51.448;7.238;2023-05-07T00:53:38;7.37;;;6.70;;
1082;SDS011;530;51.448;7.238;2023-05-07T00:56:04;6.63;;;6.03;;
1082;SDS011;530;51.448;7.238;2023-05-07T00:58:31;8.43;;;7.27;;
1082;SDS011;530;51.448;7.238;2023-05-07T01:00:58;7.70;;;6.93;;
1082;SDS011;530;51.448;7.238;2023-05-07T01:03:24;9.27;;;8.00;;
1082;SDS011;530;51.448;7.238;2023-05-07T01:05:50;6.33;;;5.70;;
1082;SDS011;530;51.448;7.238;2023-05-07T01:08:19;6.00;;;5.50;;
1082;SDS011;530;51.448;7.238;2023-05-07T01:10:47;5.50;;;4.93;;
1082;SDS011;530;51.448;7.238;2023-05-07T01:13:13;6.57;;;5.97;;
1082;SDS011;530;51.448;7.238;2023-05-07T01:15:39;4.53;;;4.13;;
1082;SDS011;530;51.448;7.238;2023-05-07T01:18:07;4.63;;;4.33;;
1082;SDS011;530;51.448;7.238;2023-05-07T01:20:33;5.80;;;4.57;;
1082;SDS011;530;51.448;7.238;2023-05-07T01:22:59;6.33;;;5.73;;
1082;SDS011;530;51.448;7.238;2023-05-07T01:25:26;5.80;;;5.27;;
1082;SDS011;530;51.448;7.238;2023-05-07T01:27:52;6.50;;;6.00;;
1082;SDS011;530;51.448;7.238;2023-05-07T01:30:18;6.60;;;6.00;;
1082;SDS011;530;51.448;7.238;2023-05-07T01:32:52;6.60;;;6.10;;
1082;SDS011;530;51.448;7.238;2023-05-07T01:35:40;7.57;;;6.40;;
1082;SDS011;530;51.448;7.238;2023-05-07T01:38:10;8.60;;;6.37;;
1082;SDS011;530;51.448;7.238;2023-05-07T01:40:36;6.77;;;5.97;;
1082;SDS011;530;51.448;7.238;2023-05-07T01:43:02;7.03;;;6.43;;
1082;SDS011;530;51.448;7.238;2023-05-07T01:45:28;7.77;;;7.07;;
1082;SDS011;530;51.448;7.238;2023-05-07T01:47:55;7.43;;;6.80;;
1082;SDS011;530;51.448;7.238;2023-05-07T01:50:22;7.10;;;6.40;;
1082;SDS011;530;51.448;7.238;2023-05-07T01:52:50;8.40;;;7.70;;
1082;SDS011;530;51.448;7.238;2023-05-07T01:55:16;8.10;;;7.40;;
1082;SDS011;530;51.448;7.238;2023-05-07T01:57:41;10.10;;;7.80;;
1082;SDS011;530;51.448;7.238;2023-05-07T02:00:08;7.23;;;6.53;;
1082;SDS011;530;51.448;7.238;2023-05-07T02:02:34;8.20;;;6.20;;
1082;SDS011;530;51.448;7.238;2023-05-07T02:05:00;6.50;;;6.00;;
1082;SDS011;530;51.448;7.238;2023-05-07T02:07:26;6.30;;;5.80;;
1082;SDS011;530;51.448;7.238;2023-05-07T02:09:52;8.60;;;6.70;;
1082;SDS011;530;51.448;7.238;2023-05-07T02:12:20;8.37;;;7.33;;
1082;SDS011;530;51.448;7.238;2023-05-07T02:14:46;7.27;;;6.67;;
1082;SDS011;530;51.448;7.238;2023-05-07T02:17:12;7.23;;;6.63;;
1082;SDS011;530;51.448;7.238;2023-05-07T02:19:37;7.10;;;6.40;;
1082;SDS011;530;51.448;7.238;2023-05-07T02:22:03;7.27;;;6.67;;
1082;SDS011;530;51.448;7.238;2023-05-07T02:24:29;8.30;;;7.37;;
1082;SDS011;530;51.448;7.238;2023-05-07T02:26:55;8.07;;;7.30;;
1082;SDS011;530;51.448;7.238;2023-05-07T02:29:20;8.30;;;7.60;;
1082;SDS011;530;51.448;7.238;2023-05-07T02:31:46;7.33;;;6.63;;
1082;SDS011;530;51.448;7.238;2023-05-07T02:34:15;7.53;;;6.83;;
1082;SDS011;530;51.448;7.238;2023-05-07T02:36:44;7.97;;;7.17;;
1082;SDS011;530;51.448;7.238;2023-05-07T02:39:11;7.47;;;6.70;;
1082;SDS011;530;51.448;7.238;2023-05-07T02:41:37;6.87;;;6.20;;
1082;SDS011;530;51.448;7.238;2023-05-07T02:44:03;8.17;;;7.00;;
1082;SDS011;530;51.448;7.238;2023-05-07T02:46:29;7.20;;;6.30;;
1082;SDS011;530;51.448;7.238;2023-05-07T02:48:55;7.90;;;7.03;;
1082;SDS011;530;51.448;7.238;2023-05-07T02:51:21;8.03;;;7.00;;
1082;SDS011;530;51.448;7.238;2023-05-07T02:53:47;9.07;;;7.23;;
1082;SDS011;530;51.448;7.238;2023-05-07T02:56:13;8.00;;;6.70;;
1082;SDS011;530;51.448;7.238;2023-05-07T02:58:39;8.77;;;6.90;;
1082;SDS011;530;51.448;7.238;2023-05-07T03:01:05;7.43;;;6.60;;
1082;SDS011;530;51.448;7.238;2023-05-07T03:03:31;8.93;;;6.20;;
1082;SDS011;530;51.448;7.238;2023-05-07T03:05:57;6.33;;;5.73;;
1082;SDS011;530;51.448;7.238;2023-05-07T03:08:23;7.60;;;6.90;;
1082;SDS011;530;51.448;7.238;2023-05-07T03:10:49;7.30;;;6.60;;
1082;SDS011;530;51.448;7.238;2023-05-07T03:13:14;7.83;;;7.13;;
1082;SDS011;530;51.448;7.238;2023-05-07T03:15:40;7.63;;;6.67;;
1082;SDS011;530;51.448;7.238;2023-05-07T03:18:06;7.83;;;7.10;;
1082;SDS011;530;51.448;7.238;2023-05-07T03:20:31;7.40;;;6.70;;
1082;SDS011;530;51.448;7.238;2023-05-07T03:22:57;7.20;;;6.50;;
1082;SDS011;530;51.448;7.238;2023-05-07T03:25:23;9.03;;;7.27;;
1082;SDS011;530;51.448;7.238;2023-05-07T03:27:49;10.80;;;7.17;;
1082;SDS011;530;51.448;7.238;2023-05-07T03:30:14;7.20;;;6.53;;
1082;SDS011;530;51.448;7.238;2023-05-07T03:32:40;7.73;;;6.97;;
1082;SDS011;530;51.448;7.238;2023-05-07T03:35:06;8.83;;;7.10;;
1082;SDS011;530;51.448;7.238;2023-05-07T03:37:32;8.40;;;7.60;;
1082;SDS011;530;51.448;7.238;2023-05-07T03:39:58;8.27;;;7.43;;
1082;SDS011;530;51.448;7.238;2023-05-07T03:42:23;9.70;;;8.70;;
1082;SDS011;530;51.448;7.238;2023-05-07T03:44:49;11.20;;;9.30;;
1082;SDS011;530;51.448;7.238;2023-05-07T03:47:15;10.43;;;9.43;;
1082;SDS011;530;51.448;7.238;2023-05-07T03:49:41;10.90;;;9.90;;
1082;SDS011;530;51.448;7.238;2023-05-07T03:52:06;13.47;;;12.17;;
1082;SDS011;530;51.448;7.238;2023-05-07T03:54:32;12.80;;;11.63;;
1082;SDS011;530;51.448;7.238;2023-05-07T03:56:58;13.13;;;11.90;;
1082;SDS011;530;51.448;7.238;2023-05-07T03:59:23;14.73;;;13.30;;
1082;SDS011;530;51.448;7.238;2023-05-07T04:01:49;15.00;;;13.67;;
1082;SDS011;530;51.448;7.238;2023-05-07T04:04:15;13.47;;;12.17;;
1082;SDS011;530;51.448;7.238;2023-05-07T04:06:41;14.43;;;13.13;;
1082;SDS011;530;51.448;7.238;2023-05-07T04:09:06;16.07;;;14.63;;
1082;SDS011;530;51.448;7.238;2023-05-07T04:11:32;19.70;;;16.17;;
1082;SDS011;530;51.448;7.238;2023-05-07T04:13:58;18.37;;;16.67;;
1082;SDS011;530;51.448;7.238;2023-05-07T04:16:24;18.10;;;16.40;;
1082;SDS011;530;51.448;7.238;2023-05-07T04:18:50;18.97;;;17.13;;
1082;SDS011;530;51.448;7.238;2023-05-07T04:21:19;19.27;;;17.37;;
1082;SDS011;530;51.448;7.238;2023-05-07T04:23:48;19.37;;;17.37;;
1082;SDS011;530;51.448;7.238;2023-05-07T04:26:14;18.87;;;17.07;;
1082;SDS011;530;51.448;7.238;2023-05-07T04:28:41;19.67;;;17.53;;
1082;SDS011;530;51.448;7.238;2023-05-07T04:31:07;18.67;;;16.87;;
1082;SDS011;530;51.448;7.238;2023-05-07T04:33:33;20.17;;;16.83;;
1082;SDS011;530;51.448;7.238;2023-05-07T04:36:01;18.13;;;16.50;;
1082;SDS011;530;51.448;7.238;2023-05-07T04:38:30;17.97;;;16.37;;
1082;SDS011;530;51.448;7.238;2023-05-07T04:41:02;16.80;;;15.20;;
1082;SDS011;530;51.448;7.238;2023-05-07T04:43:31;16.20;;;14.50;;
1082;SDS011;530;51.448;7.238;2023-05-07T04:45:56;16.20;;;14.53;;
1082;SDS011;530;51.448;7.238;2023-05-07T04:48:22;15.33;;;13.83;;
1082;SDS011;530;51.448;7.238;2023-05-07T04:50:48;16.57;;;14.73;;
1082;SDS011;530;51.448;7.238;2023-05-07T04:53:17;14.53;;;13.13;;
1082;SDS011;530;51.448;7.238;2023-05-07T04:55:43;15.43;;;13.87;;
1082;SDS011;530;51.448;7.238;2023-05-07T04:58:10;16.33;;;14.73;;
1082;SDS011;530;51.448;7.238;2023-05-07T05:00:37;16.13;;;14.53;;
1082;SDS011;530;51.448;7.238;2023-05-07T05:03:04;19.83;;;14.20;;
1082;SDS011;530;51.448;7.238;2023-05-07T05:05:30;15.30;;;13.80;;
1082;SDS011;530;51.448;7.238;2023-05-07T05:07:56;15.33;;;13.93;;
1082;SDS011;530;51.448;7.238;2023-05-07T05:10:21;14.37;;;12.97;;
1082;SDS011;530;51.448;7.238;2023-05-07T05:12:47;15.07;;;13.70;;
1082;SDS011;530;51.448;7.238;2023-05-07T05:15:13;13.47;;;12.17;;
1082;SDS011;530;51.448;7.238;2023-05-07T05:17:39;12.73;;;11.60;;
1082;SDS011;530;51.448;7.238;2023-05-07T05:20:05;13.63;;;11.50;;
1082;SDS011;530;51.448;7.238;2023-05-07T05:22:31;11.87;;;10.80;;
1082;SDS011;530;51.448;7.238;2023-05-07T05:24:57;11.93;;;10.83;;
1082;SDS011;530;51.448;7.238;2023-05-07T05:27:23;11.27;;;10.17;;
1082;SDS011;530;51.448;7.238;2023-05-07T05:29:49;10.47;;;9.47;;
1082;SDS011;530;51.448;7.238;2023-05-07T05:32:15;11.63;;;10.53;;
1082;SDS011;530;51.448;7.238;2023-05-07T05:34:41;12.50;;;11.27;;
1082;SDS011;530;51.448;7.238;2023-05-07T05:37:06;11.70;;;10.50;;
1082;SDS011;530;51.448;7.238;2023-05-07T05:39:32;11.57;;;10.47;;
1082;SDS011;530;51.448;7.238;2023-05-07T05:41:58;10.57;;;9.57;;
1082;SDS011;530;51.448;7.238;2023-05-07T05:44:23;10.70;;;9.70;;
1082;SDS011;530;51.448;7.238;2023-05-07T05:46:50;9.30;;;8.60;;
1082;SDS011;530;51.448;7.238;2023-05-07T05:49:16;9.63;;;8.83;;
1082;SDS011;530;51.448;7.238;2023-05-07T05:51:42;9.20;;;8.40;;
1082;SDS011;530;51.448;7.238;2023-05-07T05:54:08;8.80;;;7.87;;
1082;SDS011;530;51.448;7.238;2023-05-07T05:56:34;8.50;;;7.70;;
1082;SDS011;530;51.448;7.238;2023-05-07T05:59:00;9.23;;;8.27;;
1082;SDS011;530;51.448;7.238;2023-05-07T06:01:25;7.70;;;7.00;;
1082;SDS011;530;51.448;7.238;2023-05-07T06:03:51;7.07;;;6.37;;
1082;SDS011;530;51.448;7.238;2023-05-07T06:06:17;7.27;;;6.67;;
1082;SDS011;530;51.448;7.238;2023-05-07T06:08:43;7.53;;;6.83;;
1082;SDS011;530;51.448;7.238;2023-05-07T06:11:08;7.07;;;6.40;;
1082;SDS011;530;51.448;7.238;2023-05-07T06:13:34;6.23;;;5.63;;
1082;SDS011;530;51.448;7.238;2023-05-07T06:16:00;6.30;;;5.80;;
1082;SDS011;530;51.448;7.238;2023-05-07T06:18:25;7.97;;;6.03;;
1082;SDS011;530;51.448;7.238;2023-05-07T06:20:51;6.70;;;6.10;;
1082;SDS011;530;51.448;7.238;2023-05-07T06:23:18;6.13;;;5.53;;
1082;SDS011;530;51.448;7.238;2023-05-07T06:25:50;5.60;;;5.10;;
1082;SDS011;530;51.448;7.238;2023-05-07T06:28:16;5.87;;;5.13;;
1082;SDS011;530;51.448;7.238;2023-05-07T06:30:42;5.60;;;5.10;;
1082;SDS011;530;51.448;7.238;2023-05-07T06:33:07;6.07;;;5.47;;
1082;SDS011;530;51.448;7.238;2023-05-07T06:35:33;7.07;;;4.73;;
1082;SDS011;530;51.448;7.238;2023-05-07T06:37:59;5.30;;;4.60;;
1082;SDS011;530;51.448;7.238;2023-05-07T06:40:25;4.40;;;4.00;;
1082;SDS011;530;51.448;7.238;2023-05-07T06:42:51;5.37;;;4.97;;
1082;SDS011;530;51.448;7.238;2023-05-07T06:45:16;4.37;;;3.97;;
1082;SDS011;530;51.448;7.238;2023-05-07T06:47:42;4.50;;;4.10;;
1082;SDS011;530;51.448;7.238;2023-05-07T06:50:08;3.67;;;3.37;;
1082;SDS011;530;51.448;7.238;2023-05-07T06:52:34;4.37;;;3.97;;
1082;SDS011;530;51.448;7.238;2023-05-07T06:55:00;6.20;;;4.07;;
1082;SDS011;530;51.448;7.238;2023-05-07T06:57:26;5.30;;;4.27;;
1082;SDS011;530;51.448;7.238;2023-05-07T06:59:52;4.87;;;4.13;;
1082;SDS011;530;51.448;7.238;2023-05-07T07:02:17;6.40;;;3.47;;
1082;SDS011;530;51.448;7.238;2023-05-07T07:04:43;4.40;;;3.33;;
1082;SDS011;530;51.448;7.238;2023-05-07T07:07:10;4.50;;;3.77;;
1082;SDS011;530;51.448;7.238;2023-05-07T07:09:36;4.93;;;4.27;;
1082;SDS011;530;51.448;7.238;2023-05-07T07:12:01;4.20;;;3.80;;
1082;SDS011;530;51.448;7.238;2023-05-07T07:14:27;3.73;;;3.20;;
1082;SDS011;530;51.448;7.238;2023-05-07T07:16:53;4.63;;;3.40;;
1082;SDS011;530;51.448;7.238;2023-05-07T07:19:18;3.93;;;3.57;;
1082;SDS011;530;51.448;7.238;2023-05-07T07:21:45;7.23;;;3.60;;
1082;SDS011;530;51.448;7.238;2023-05-07T07:24:11;5.20;;;3.23;;
1082;SDS011;530;51.448;7.238;2023-05-07T07:26:37;3.70;;;3.40;;
1082;SDS011;530;51.448;7.238;2023-05-07T07:29:05;3.73;;;3.30;;
1082;SDS011;530;51.448;7.238;2023-05-07T07:31:31;3.67;;;3.27;;
1082;SDS011;530;51.448;7.238;2023-05-07T07:33:57;3.80;;;3.40;;
1082;SDS011;530;51.448;7.238;2023-05-07T07:36:23;4.00;;;3.70;;
1082;SDS011;530;51.448;7.238;2023-05-07T07:38:49;4.80;;;3.57;;
1082;SDS011;530;51.448;7.238;2023-05-07T07:41:14;4.30;;;3.27;;
1082;SDS011;530;51.448;7.238;2023-05-07T07:43:40;4.53;;;4.10;;
1082;SDS011;530;51.448;7.238;2023-05-07T07:46:06;4.43;;;3.87;;
1082;SDS011;530;51.448;7.238;2023-05-07T07:48:31;4.73;;;3.80;;
1082;SDS011;530;51.448;7.238;2023-05-07T07:50:58;4.20;;;3.80;;
1082;SDS011;530;51.448;7.238;2023-05-07T07:53:24;4.13;;;3.73;;
1082;SDS011;530;51.448;7.238;2023-05-07T07:55:50;4.57;;;3.67;;
1082;SDS011;530;51.448;7.238;2023-05-07T07:58:16;4.67;;;3.40;;
1082;SDS011;530;51.448;7.238;2023-05-07T08:00:41;4.93;;;3.40;;
1082;SDS011;530;51.448;7.238;2023-05-07T08:03:10;3.10;;;2.90;;
1082;SDS011;530;51.448;7.238;2023-05-07T08:05:36;4.00;;;2.90;;
1082;SDS011;530;51.448;7.238;2023-05-07T08:08:03;5.20;;;3.00;;
1082;SDS011;530;51.448;7.238;2023-05-07T08:10:29;3.60;;;3.30;;
1082;SDS011;530;51.448;7.238;2023-05-07T08:12:58;3.53;;;2.87;;
1082;SDS011;530;51.448;7.238;2023-05-07T08:15:24;3.17;;;2.73;;
1082;SDS011;530;51.448;7.238;2023-05-07T08:17:50;3.57;;;3.27;;
1082;SDS011;530;51.448;7.238;2023-05-07T08:20:16;2.73;;;2.53;;
1082;SDS011;530;51.448;7.238;2023-05-07T08:22:41;4.33;;;2.67;;
1082;SDS011;530;51.448;7.238;2023-05-07T08:25:07;3.90;;;3.23;;
1082;SDS011;530;51.448;7.238;2023-05-07T08:27:33;3.60;;;2.93;;
1082;SDS011;530;51.448;7.238;2023-05-07T08:29:59;5.27;;;2.90;;
1082;SDS011;530;51.448;7.238;2023-05-07T08:32:24;3.30;;;2.90;;
1082;SDS011;530;51.448;7.238;2023-05-07T08:34:50;3.13;;;2.80;;
1082;SDS011;530;51.448;7.238;2023-05-07T08:37:16;3.17;;;2.87;;
1082;SDS011;530;51.448;7.238;2023-05-07T08:39:41;3.70;;;2.50;;
1082;SDS011;530;51.448;7.238;2023-05-07T08:42:07;3.80;;;3.40;;
1082;SDS011;530;51.448;7.238;2023-05-07T08:44:36;3.63;;;3.33;;
1082;SDS011;530;51.448;7.238;2023-05-07T08:47:06;3.67;;;3.37;;
1082;SDS011;530;51.448;7.238;2023-05-07T08:49:32;3.47;;;3.20;;
1082;SDS011;530;51.448;7.238;2023-05-07T08:51:59;3.27;;;2.97;;
1082;SDS011;530;51.448;7.238;2023-05-07T08:54:25;3.73;;;3.10;;
1082;SDS011;530;51.448;7.238;2023-05-07T08:56:52;5.03;;;3.90;;
1082;SDS011;530;51.448;7.238;2023-05-07T08:59:18;3.80;;;3.50;;
1082;SDS011;530;51.448;7.238;2023-05-07T09:01:43;4.60;;;4.10;;
1082;SDS011;530;51.448;7.238;2023-05-07T09:04:09;4.30;;;3.40;;
1082;SDS011;530;51.448;7.238;2023-05-07T09:06:35;3.70;;;3.37;;
1082;SDS011;530;51.448;7.238;2023-05-07T09:09:03;4.20;;;3.70;;
1082;SDS011;530;51.448;7.238;2023-05-07T09:11:30;4.97;;;4.47;;
1082;SDS011;530;51.448;7.238;2023-05-07T09:13:56;4.60;;;4.20;;
1082;SDS011;530;51.448;7.238;2023-05-07T09:16:24;7.13;;;4.00;;
1082;SDS011;530;51.448;7.238;2023-05-07T09:18:51;4.57;;;4.07;;
1082;SDS011;530;51.448;7.238;2023-05-07T09:21:18;5.57;;;4.60;;
1082;SDS011;530;51.448;7.238;2023-05-07T09:23:45;5.83;;;4.43;;
1082;SDS011;530;51.448;7.238;2023-05-07T09:26:12;4.70;;;4.30;;
1082;SDS011;530;51.448;7.238;2023-05-07T09:28:42;5.20;;;4.63;;
1082;SDS011;530;51.448;7.238;2023-05-07T09:31:09;5.50;;;5.00;;
1082;SDS011;530;51.448;7.238;2023-05-07T09:33:35;4.77;;;4.37;;
1082;SDS011;530;51.448;7.238;2023-05-07T09:36:02;5.23;;;4.80;;
1082;SDS011;530;51.448;7.238;2023-05-07T09:38:28;6.40;;;4.83;;
1082;SDS011;530;51.448;7.238;2023-05-07T09:41:08;6.00;;;5.43;;
1082;SDS011;530;51.448;7.238;2023-05-07T09:43:35;5.33;;;4.83;;
1082;SDS011;530;51.448;7.238;2023-05-07T09:46:11;6.53;;;6.03;;
1082;SDS011;530;51.448;7.238;2023-05-07T09:48:38;8.73;;;5.73;;
1082;SDS011;530;51.448;7.238;2023-05-07T09:51:29;8.97;;;8.07;;
1082;SDS011;530;51.448;7.238;2023-05-07T09:53:54;7.23;;;6.60;;
1082;SDS011;530;51.448;7.238;2023-05-07T09:56:21;10.30;;;7.87;;
1082;SDS011;530;51.448;7.238;2023-05-07T09:58:48;7.17;;;6.13;;
1082;SDS011;530;51.448;7.238;2023-05-07T10:01:16;6.43;;;5.93;;
1082;SDS011;530;51.448;7.238;2023-05-07T10:03:44;7.00;;;6.30;;
1082;SDS011;530;51.448;7.238;2023-05-07T10:06:10;8.63;;;7.80;;
1082;SDS011;530;51.448;7.238;2023-05-07T10:08:38;8.13;;;7.33;;
1082;SDS011;530;51.448;7.238;2023-05-07T10:11:04;9.83;;;6.20;;
1082;SDS011;530;51.448;7.238;2023-05-07T10:13:31;7.00;;;6.40;;
1082;SDS011;530;51.448;7.238;2023-05-07T10:16:01;8.90;;;7.33;;
1082;SDS011;530;51.448;7.238;2023-05-07T10:18:33;8.50;;;7.80;;
1082;SDS011;530;51.448;7.238;2023-05-07T10:21:08;7.80;;;7.10;;
1082;SDS011;530;51.448;7.238;2023-05-07T10:23:41;7.53;;;6.83;;
1082;SDS011;530;51.448;7.238;2023-05-07T10:26:11;6.23;;;5.63;;
1082;SDS011;530;51.448;7.238;2023-05-07T10:28:39;8.70;;;6.27;;
1082;SDS011;530;51.448;7.238;2023-05-07T10:31:15;6.77;;;6.13;;
1082;SDS011;530;51.448;7.238;2023-05-07T10:33:44;12.23;;;6.97;;
1082;SDS011;530;51.448;7.238;2023-05-07T10:36:12;6.53;;;5.77;;
1082;SDS011;530;51.448;7.238;2023-05-07T10:38:38;4.87;;;4.47;;
1082;SDS011;530;51.448;7.238;2023-05-07T10:41:05;7.97;;;4.70;;
1082;SDS011;530;51.448;7.238;2023-05-07T10:43:38;4.90;;;4.50;;
1082;SDS011;530;51.448;7.238;2023-05-07T10:46:09;5.10;;;4.70;;
1082;SDS011;530;51.448;7.238;2023-05-07T10:49:06;5.13;;;4.00;;
1082;SDS011;530;51.448;7.238;2023-05-07T10:51:34;4.83;;;4.27;;
1082;SDS011;530;51.448;7.238;2023-05-07T10:56:35;4.27;;;3.93;;
1082;SDS011;530;51.448;7.238;2023-05-07T11:01:58;5.47;;;4.53;;
1082;SDS011;530;51.448;7.238;2023-05-07T11:04:27;5.73;;;4.10;;
1082;SDS011;530;51.448;7.238;2023-05-07T11:07:20;5.80;;;4.63;;
1082;SDS011;530;51.448;7.238;2023-05-07T11:15:06;5.33;;;4.87;;
1082;SDS011;530;51.448;7.238;2023-05-07T11:17:33;5.70;;;5.20;;
1082;SDS011;530;51.448;7.238;2023-05-07T11:20:00;5.00;;;4.50;;
1082;SDS011;530;51.448;7.238;2023-05-07T11:24:56;5.97;;;5.43;;
1082;SDS011;530;51.448;7.238;2023-05-07T11:27:24;6.30;;;5.60;;
1082;SDS011;530;51.448;7.238;2023-05-07T11:29:50;6.10;;;5.37;;
1082;SDS011;530;51.448;7.238;2023-05-07T11:32:22;6.53;;;5.93;;
1082;SDS011;530;51.448;7.238;2023-05-07T11:34:52;6.93;;;6.33;;
1082;SDS011;530;51.448;7.238;2023-05-07T11:37:18;6.17;;;5.67;;
1082;SDS011;530;51.448;7.238;2023-05-07T11:39:44;6.20;;;5.60;;
1082;SDS011;530;51.448;7.238;2023-05-07T11:45:19;7.10;;;6.40;;
1082;SDS011;530;51.448;7.238;2023-05-07T11:47:50;8.80;;;7.90;;
1082;SDS011;530;51.448;7.238;2023-05-07T11:50:16;6.80;;;6.20;;
1082;SDS011;530;51.448;7.238;2023-05-07T11:52:49;8.00;;;7.30;;
1082;SDS011;530;51.448;7.238;2023-05-07T11:55:17;9.57;;;8.17;;
1082;SDS011;530;51.448;7.238;2023-05-07T11:57:44;7.63;;;6.93;;
1082;SDS011;530;51.448;7.238;2023-05-07T12:00:10;8.50;;;7.40;;
1082;SDS011;530;51.448;7.238;2023-05-07T12:02:36;8.80;;;8.00;;
1082;SDS011;530;51.448;7.238;2023-05-07T12:05:02;7.40;;;6.80;;
1082;SDS011;530;51.448;7.238;2023-05-07T12:07:27;7.80;;;7.13;;
1082;SDS011;530;51.448;7.238;2023-05-07T12:09:53;7.10;;;6.40;;
1082;SDS011;530;51.448;7.238;2023-05-07T12:12:19;8.60;;;7.80;;
1082;SDS011;530;51.448;7.238;2023-05-07T12:14:45;8.30;;;7.50;;
1082;SDS011;530;51.448;7.238;2023-05-07T12:17:11;9.93;;;9.13;;
1082;SDS011;530;51.448;7.238;2023-05-07T12:19:38;6.60;;;6.10;;
1082;SDS011;530;51.448;7.238;2023-05-07T12:22:06;7.50;;;6.60;;
1082;SDS011;530;51.448;7.238;2023-05-07T12:27:28;8.67;;;7.87;;
1082;SDS011;530;51.448;7.238;2023-05-07T12:29:54;8.83;;;7.90;;
1082;SDS011;530;51.448;7.238;2023-05-07T12:32:22;9.13;;;7.97;;
1082;SDS011;530;51.448;7.238;2023-05-07T12:34:51;8.17;;;7.47;;
1082;SDS011;530;51.448;7.238;2023-05-07T12:37:17;8.77;;;7.90;;
1082;SDS011;530;51.448;7.238;2023-05-07T12:40:02;8.80;;;8.00;;
1082;SDS011;530;51.448;7.238;2023-05-07T12:42:33;9.87;;;7.53;;
1082;SDS011;530;51.448;7.238;2023-05-07T12:45:20;8.27;;;7.47;;
1082;SDS011;530;51.448;7.238;2023-05-07T12:47:46;9.13;;;8.33;;
1082;SDS011;530;51.448;7.238;2023-05-07T12:50:15;9.40;;;8.50;;
1082;SDS011;530;51.448;7.238;2023-05-07T12:52:42;10.90;;;9.80;;
1082;SDS011;530;51.448;7.238;2023-05-07T12:55:09;10.30;;;8.97;;
1082;SDS011;530;51.448;7.238;2023-05-07T12:57:47;10.47;;;9.47;;
1082;SDS011;530;51.448;7.238;2023-05-07T13:00:15;10.07;;;9.10;;
1082;SDS011;530;51.448;7.238;2023-05-07T13:02:41;9.17;;;7.50;;
1082;SDS011;530;51.448;7.238;2023-05-07T13:05:11;8.63;;;7.67;;
1082;SDS011;530;51.448;7.238;2023-05-07T13:07:37;6.73;;;5.90;;
1082;SDS011;530;51.448;7.238;2023-05-07T13:10:03;6.77;;;6.17;;
1082;SDS011;530;51.448;7.238;2023-05-07T13:12:29;5.90;;;5.33;;
1082;SDS011;530;51.448;7.238;2023-05-07T13:14:55;6.30;;;5.70;;
1082;SDS011;530;51.448;7.238;2023-05-07T13:17:20;7.40;;;6.00;;
1082;SDS011;530;51.448;7.238;2023-05-07T13:19:46;6.93;;;5.77;;
1082;SDS011;530;51.448;7.238;2023-05-07T13:22:12;6.83;;;6.23;;
1082;SDS011;530;51.448;7.238;2023-05-07T13:24:38;7.90;;;5.70;;
1082;SDS011;530;51.448;7.238;2023-05-07T13:27:06;6.40;;;5.80;;
1082;SDS011;530;51.448;7.238;2023-05-07T13:29:32;8.40;;;6.27;;
1082;SDS011;530;51.448;7.238;2023-05-07T13:31:58;7.57;;;6.93;;
1082;SDS011;530;51.448;7.238;2023-05-07T13:34:25;7.33;;;6.63;;
1082;SDS011;530;51.448;7.238;2023-05-07T13:36:51;7.50;;;6.80;;
1082;SDS011;530;51.448;7.238;2023-05-07T13:39:17;6.57;;;5.90;;
1082;SDS011;530;51.448;7.238;2023-05-07T13:41:42;5.97;;;5.47;;
1082;SDS011;530;51.448;7.238;2023-05-07T13:44:08;6.53;;;5.47;;
1082;SDS011;530;51.448;7.238;2023-05-07T13:46:34;5.93;;;5.20;;
1082;SDS011;530;51.448;7.238;2023-05-07T13:49:00;5.73;;;5.10;;
1082;SDS011;530;51.448;7.238;2023-05-07T13:51:26;5.37;;;4.87;;
1082;SDS011;530;51.448;7.238;2023-05-07T13:53:52;6.13;;;5.53;;
1082;SDS011;530;51.448;7.238;2023-05-07T13:56:17;5.43;;;5.03;;
1082;SDS011;530;51.448;7.238;2023-05-07T13:58:43;6.17;;;5.50;;
1082;SDS011;530;51.448;7.238;2023-05-07T14:01:09;4.97;;;4.47;;
1082;SDS011;530;51.448;7.238;2023-05-07T14:03:35;5.80;;;5.27;;
1082;SDS011;530;51.448;7.238;2023-05-07T14:06:03;6.23;;;5.43;;
1082;SDS011;530;51.448;7.238;2023-05-07T14:08:29;9.00;;;5.57;;
1082;SDS011;530;51.448;7.238;2023-05-07T14:10:54;5.43;;;4.90;;
1082;SDS011;530;51.448;7.238;2023-05-07T14:13:20;7.43;;;5.10;;
1082;SDS011;530;51.448;7.238;2023-05-07T14:15:46;6.67;;;6.07;;
1082;SDS011;530;51.448;7.238;2023-05-07T14:18:14;7.30;;;6.60;;
1082;SDS011;530;51.448;7.238;2023-05-07T14:20:40;7.40;;;6.70;;
1082;SDS011;530;51.448;7.238;2023-05-07T14:23:05;6.67;;;6.07;;
1082;SDS011;530;51.448;7.238;2023-05-07T14:25:31;6.43;;;5.93;;
1082;SDS011;530;51.448;7.238;2023-05-07T14:27:57;7.10;;;6.40;;
1082;SDS011;530;51.448;7.238;2023-05-07T14:30:23;7.37;;;6.77;;
1082;SDS011;530;51.448;7.238;2023-05-07T14:32:50;8.40;;;7.00;;
1082;SDS011;530;51.448;7.238;2023-05-07T14:35:16;9.53;;;8.63;;
1082;SDS011;530;51.448;7.238;2023-05-07T14:37:42;8.03;;;7.33;;
1082;SDS011;530;51.448;7.238;2023-05-07T14:40:08;8.63;;;7.83;;
1082;SDS011;530;51.448;7.238;2023-05-07T14:42:34;7.90;;;7.20;;
1082;SDS011;530;51.448;7.238;2023-05-07T14:45:00;8.07;;;7.20;;
1082;SDS011;530;51.448;7.238;2023-05-07T14:47:27;7.23;;;6.53;;
1082;SDS011;530;51.448;7.238;2023-05-07T14:49:53;8.23;;;7.43;;
1082;SDS011;530;51.448;7.238;2023-05-07T14:52:19;8.00;;;7.30;;
1082;SDS011;530;51.448;7.238;2023-05-07T14:54:45;8.50;;;7.70;;
1082;SDS011;530;51.448;7.238;2023-05-07T14:57:13;7.30;;;6.60;;
1082;SDS011;530;51.448;7.238;2023-05-07T14:59:41;11.43;;;8.60;;
1082;SDS011;530;51.448;7.238;2023-05-07T15:02:07;8.97;;;8.17;;
1082;SDS011;530;51.448;7.238;2023-05-07T15:04:34;8.83;;;7.93;;
1082;SDS011;530;51.448;7.238;2023-05-07T15:07:00;9.47;;;8.57;;
1082;SDS011;530;51.448;7.238;2023-05-07T15:09:25;9.53;;;8.63;;
1082;SDS011;530;51.448;7.238;2023-05-07T15:11:51;9.13;;;8.23;;
1082;SDS011;530;51.448;7.238;2023-05-07T15:14:17;11.10;;;10.00;;
1082;SDS011;530;51.448;7.238;2023-05-07T15:16:43;9.67;;;8.77;;
1082;SDS011;530;51.448;7.238;2023-05-07T15:19:11;9.00;;;8.10;;
1082;SDS011;530;51.448;7.238;2023-05-07T15:21:37;9.40;;;8.50;;
1082;SDS011;530;51.448;7.238;2023-05-07T15:24:03;9.17;;;8.27;;
1082;SDS011;530;51.448;7.238;2023-05-07T15:26:28;8.57;;;7.70;;
1082;SDS011;530;51.448;7.238;2023-05-07T15:28:54;10.27;;;7.37;;
1082;SDS011;530;51.448;7.238;2023-05-07T15:31:22;8.00;;;7.30;;
1082;SDS011;530;51.448;7.238;2023-05-07T15:33:51;8.83;;;6.77;;
1082;SDS011;530;51.448;7.238;2023-05-07T15:36:21;7.20;;;6.50;;
1082;SDS011;530;51.448;7.238;2023-05-07T15:38:47;5.13;;;4.73;;
1082;SDS011;530;51.448;7.238;2023-05-07T15:41:12;5.20;;;4.80;;